Time;durP1;ratioP1;P1;durP2;ratioP2;P2;SDS_P1;SDS_P2;PMS_P1;PMS_P2;Temp;Humidity;BMP_temperature;BMP_pressure;BME280_temperature;BME280_humidity;BME280_pressure;Samples;Min_cycle;Max_cycle;Signal;HPM_P1;HPM_P2
2021/03/07 00:00:35;;;;;;;7.82;6.18;;;4.60;1.00;;;;;;4921122;29;20241;-79
2021/03/07 00:03:02;;;;;;;6.85;6.15;;;4.60;1.00;;;;;;4927292;28;20245;-77
2021/03/07 00:05:28;;;;;;;7.35;6.20;;;4.60;1.00;;;;;;4922865;28;20277;-77
2021/03/07 00:07:55;;;;;;;6.32;5.72;;;4.60;1.00;;;;;;4929829;29;20232;-77
2021/03/07 00:10:22;;;;;;;9.43;5.78;;;4.60;1.00;;;;;;4917858;29;20230;-77
2021/03/07 00:12:49;;;;;;;8.05;5.68;;;4.60;1.00;;;;;;4928180;29;20791;-75
2021/03/07 00:15:18;;;;;;;6.47;5.82;;;4.50;1.00;;;;;;4920288;29;20237;-76
2021/03/07 00:17:46;;;;;;;6.78;6.18;;;4.60;1.00;;;;;;4948560;28;20970;-76
2021/03/07 00:20:14;;;;;;;6.72;5.90;;;4.60;1.00;;;;;;4922769;28;21087;-76
2021/03/07 00:22:41;;;;;;;6.90;5.78;;;4.50;1.00;;;;;;4930430;28;20230;-78
2021/03/07 00:25:09;;;;;;;24.92;8.80;;;4.60;1.00;;;;;;4920284;28;20252;-76
2021/03/07 00:27:37;;;;;;;7.55;6.50;;;4.50;1.00;;;;;;4929792;29;20253;-74
2021/03/07 00:30:04;;;;;;;9.80;6.30;;;4.60;1.00;;;;;;4917889;28;20233;-76
2021/03/07 00:32:31;;;;;;;12.25;6.85;;;4.60;1.00;;;;;;4933373;29;20229;-77
2021/03/07 00:34:57;;;;;;;6.25;5.65;;;4.60;1.00;;;;;;4927655;29;20293;-76
2021/03/07 00:37:24;;;;;;;7.85;6.07;;;4.60;1.00;;;;;;4935754;29;20226;-76
2021/03/07 00:39:50;;;;;;;6.22;5.30;;;4.50;1.00;;;;;;4924108;28;20333;-76
2021/03/07 00:42:17;;;;;;;6.25;5.57;;;4.60;1.00;;;;;;4931519;28;20221;-76
2021/03/07 00:44:43;;;;;;;5.15;4.65;;;4.50;1.00;;;;;;4928480;28;21041;-75
2021/03/07 00:47:10;;;;;;;6.03;5.40;;;4.50;1.00;;;;;;4919740;28;20367;-74
2021/03/07 00:49:37;;;;;;;8.50;5.55;;;4.50;1.00;;;;;;4926846;28;20413;-75
2021/03/07 00:52:03;;;;;;;9.35;5.65;;;4.50;1.00;;;;;;4915965;28;20230;-77
2021/03/07 00:54:30;;;;;;;6.72;5.60;;;4.50;1.00;;;;;;4927247;28;20232;-76
2021/03/07 00:56:56;;;;;;;9.05;6.20;;;4.50;1.00;;;;;;4917778;28;20221;-77
2021/03/07 00:59:23;;;;;;;7.65;5.90;;;4.50;1.00;;;;;;4927208;28;20306;-75
2021/03/07 01:01:50;;;;;;;7.47;6.07;;;4.40;1.00;;;;;;4922886;28;20293;-75
2021/03/07 01:04:19;;;;;;;6.35;5.60;;;4.40;1.00;;;;;;4928190;29;20226;-77
2021/03/07 01:06:47;;;;;;;12.43;8.10;;;4.40;1.00;;;;;;4912634;29;20325;-77
2021/03/07 01:09:14;;;;;;;8.10;6.10;;;4.40;1.00;;;;;;4921919;28;20235;-76
2021/03/07 01:11:40;;;;;;;7.93;6.70;;;4.50;1.00;;;;;;4918466;28;20222;-76
2021/03/07 01:14:07;;;;;;;7.45;6.65;;;4.50;1.00;;;;;;4925581;28;20753;-76
2021/03/07 01:16:33;;;;;;;8.93;7.13;;;4.50;1.00;;;;;;4920110;28;21686;-77
2021/03/07 01:19:00;;;;;;;8.43;7.55;;;4.50;1.00;;;;;;4934296;29;20277;-74
2021/03/07 01:21:26;;;;;;;7.57;6.72;;;4.50;1.00;;;;;;4925891;28;20264;-75
2021/03/07 01:23:53;;;;;;;9.43;8.43;;;4.50;1.00;;;;;;4922981;29;20236;-76
2021/03/07 01:26:20;;;;;;;9.48;7.70;;;4.40;1.00;;;;;;4928169;29;20252;-77
2021/03/07 01:28:46;;;;;;;8.77;7.70;;;4.30;1.00;;;;;;4918765;28;20236;-76
2021/03/07 01:31:12;;;;;;;7.47;6.70;;;4.20;1.00;;;;;;4925355;29;20237;-75
2021/03/07 01:33:38;;;;;;;8.45;7.57;;;4.10;1.00;;;;;;4916637;28;20229;-76
2021/03/07 01:36:05;;;;;;;7.53;6.85;;;4.10;1.00;;;;;;4928370;28;20741;-77
2021/03/07 01:38:33;;;;;;;9.55;6.88;;;4.10;1.00;;;;;;4915950;28;20284;-75
2021/03/07 01:41:00;;;;;;;9.38;6.90;;;4.10;1.00;;;;;;4925612;28;20244;-77
2021/03/07 01:43:27;;;;;;;9.75;7.57;;;4.10;1.00;;;;;;4918483;29;20214;-76
2021/03/07 01:45:56;;;;;;;7.70;6.68;;;4.10;1.00;;;;;;4920720;28;20249;-75
2021/03/07 01:48:23;;;;;;;9.13;7.80;;;4.10;1.00;;;;;;4913220;28;20259;-76
2021/03/07 01:50:51;;;;;;;9.25;8.35;;;4.10;1.00;;;;;;4928907;28;20230;-77
2021/03/07 01:53:18;;;;;;;9.30;8.30;;;4.20;1.00;;;;;;4919649;28;20554;-76
2021/03/07 01:55:46;;;;;;;10.50;9.38;;;4.20;1.00;;;;;;4927952;28;20230;-77
2021/03/07 01:58:18;;;;;;;10.32;9.40;;;4.10;1.00;;;;;;4917289;28;20310;-76
2021/03/07 02:00:44;;;;;;;11.13;9.27;;;4.20;1.00;;;;;;4925551;28;20280;-76
2021/03/07 02:03:13;;;;;;;11.82;9.65;;;4.20;1.00;;;;;;4914457;29;20361;-76
2021/03/07 02:05:41;;;;;;;11.90;10.05;;;4.10;1.00;;;;;;4931728;29;20228;-77
2021/03/07 02:08:08;;;;;;;10.35;8.30;;;4.00;1.00;;;;;;4928200;28;20229;-75
2021/03/07 02:10:38;;;;;;;9.38;8.25;;;4.00;1.00;;;;;;4927773;29;20229;-77
2021/03/07 02:13:12;;;;;;;8.80;8.00;;;4.00;1.00;;;;;;4922762;28;20320;-76
2021/03/07 02:15:41;;;;;;;8.65;7.50;;;4.00;1.00;;;;;;4923758;28;20238;-75
2021/03/07 02:18:09;;;;;;;8.38;7.50;;;4.10;1.00;;;;;;4933517;28;20259;-76
2021/03/07 02:20:39;;;;;;;7.85;7.07;;;4.00;1.00;;;;;;4920996;29;20247;-75
2021/03/07 02:23:08;;;;;;;11.27;7.15;;;4.10;1.00;;;;;;4933639;28;20231;-76
2021/03/07 02:25:37;;;;;;;8.95;6.30;;;4.00;1.00;;;;;;4919054;28;20233;-77
2021/03/07 02:28:05;;;;;;;8.05;5.95;;;4.00;1.00;;;;;;4930207;29;20225;-75
2021/03/07 02:30:32;;;;;;;7.20;6.07;;;4.00;1.00;;;;;;4936890;28;20584;-75
2021/03/07 02:33:07;;;;;;;5.65;5.10;;;4.00;1.00;;;;;;4925924;29;20229;-76
2021/03/07 02:35:38;;;;;;;6.82;5.80;;;4.00;1.00;;;;;;4930269;29;20232;-76
2021/03/07 02:38:06;;;;;;;7.25;4.85;;;3.90;1.00;;;;;;4940597;29;20225;-77
2021/03/07 02:40:35;;;;;;;7.28;5.07;;;4.00;1.00;;;;;;4915909;29;20241;-78
2021/03/07 02:43:01;;;;;;;6.22;5.00;;;4.00;1.00;;;;;;4931998;28;20286;-75
2021/03/07 02:45:28;;;;;;;6.88;4.32;;;3.90;1.00;;;;;;4929856;28;20313;-76
2021/03/07 02:47:55;;;;;;;4.15;3.75;;;3.90;1.00;;;;;;4932039;29;20249;-77
2021/03/07 02:50:25;;;;;;;3.45;3.03;;;3.80;1.00;;;;;;4919344;28;20642;-77
2021/03/07 02:52:53;;;;;;;4.88;3.28;;;3.80;1.00;;;;;;4929170;29;20289;-77
2021/03/07 02:55:21;;;;;;;3.45;2.90;;;3.70;1.00;;;;;;4916784;28;20290;-76
2021/03/07 02:57:51;;;;;;;5.47;2.80;;;3.70;1.00;;;;;;4926788;29;20225;-77
2021/03/07 03:00:18;;;;;;;3.75;2.00;;;3.70;1.00;;;;;;4916655;28;20815;-76
2021/03/07 03:02:47;;;;;;;5.93;2.30;;;3.60;1.00;;;;;;4927803;29;20318;-77
2021/03/07 03:05:14;;;;;;;3.63;2.60;;;3.60;1.00;;;;;;4921977;28;21112;-77
2021/03/07 03:07:42;;;;;;;4.15;1.92;;;3.60;1.00;;;;;;4922202;29;20226;-75
2021/03/07 03:10:11;;;;;;;2.88;2.17;;;3.60;1.00;;;;;;4924705;29;21050;-76
2021/03/07 03:12:39;;;;;;;2.75;2.15;;;3.50;1.00;;;;;;4920601;28;20214;-75
2021/03/07 03:15:09;;;;;;;2.58;1.63;;;3.50;1.00;;;;;;4924071;29;20233;-74
2021/03/07 03:17:36;;;;;;;2.40;1.60;;;3.50;1.00;;;;;;4920060;28;20222;-74
2021/03/07 03:20:07;;;;;;;3.78;1.85;;;3.50;1.00;;;;;;4933972;29;20233;-75
2021/03/07 03:22:34;;;;;;;3.53;1.92;;;3.50;1.00;;;;;;4923316;29;20237;-74
2021/03/07 03:25:01;;;;;;;4.53;2.05;;;3.50;1.00;;;;;;4930668;28;20236;-75
2021/03/07 03:27:27;;;;;;;2.95;2.13;;;3.50;1.00;;;;;;4920823;28;20257;-78
2021/03/07 03:29:54;;;;;;;3.35;2.08;;;3.50;1.00;;;;;;4936327;29;20253;-74
2021/03/07 03:32:21;;;;;;;3.75;2.15;;;3.50;1.00;;;;;;4937065;28;20229;-76
2021/03/07 03:34:48;;;;;;;3.45;2.00;;;3.50;1.00;;;;;;4930432;29;20233;-75
2021/03/07 03:37:14;;;;;;;3.38;2.40;;;3.50;1.00;;;;;;4921149;29;20253;-76
2021/03/07 03:39:44;;;;;;;8.27;3.03;;;3.50;1.00;;;;;;4926059;29;20935;-75
2021/03/07 03:42:11;;;;;;;2.72;2.00;;;3.50;1.00;;;;;;4924807;28;20241;-74
2021/03/07 03:44:39;;;;;;;3.80;2.40;;;3.50;1.00;;;;;;4952086;23;20233;-78
2021/03/07 03:47:09;;;;;;;3.47;2.42;;;3.50;1.00;;;;;;4906309;28;20228;-78
2021/03/07 03:49:44;;;;;;;4.40;2.92;;;3.50;1.00;;;;;;4937505;28;20233;-77
2021/03/07 03:52:13;;;;;;;3.83;3.03;;;3.50;1.00;;;;;;4930266;28;20220;-77
2021/03/07 03:54:44;;;;;;;5.05;2.58;;;3.40;1.00;;;;;;4934143;28;20309;-77
2021/03/07 03:57:11;;;;;;;5.15;2.50;;;3.40;1.00;;;;;;4934372;28;20243;-78
2021/03/07 03:59:38;;;;;;;5.05;2.67;;;3.40;1.00;;;;;;4926523;28;20294;-78
2021/03/07 04:02:06;;;;;;;4.47;4.07;;;3.40;1.00;;;;;;4937281;28;20791;-79
2021/03/07 04:04:33;;;;;;;9.60;3.83;;;3.30;1.00;;;;;;4912371;28;20225;-78
2021/03/07 04:07:01;;;;;;;4.32;2.80;;;3.30;1.00;;;;;;4940646;28;20233;-78
2021/03/07 04:09:29;;;;;;;3.90;3.50;;;3.20;1.00;;;;;;4926756;28;20229;-79
2021/03/07 04:11:57;;;;;;;6.13;3.00;;;3.20;1.00;;;;;;4938233;28;20359;-78
2021/03/07 04:14:24;;;;;;;7.25;3.45;;;3.20;1.00;;;;;;4929962;28;20229;-78
2021/03/07 04:16:51;;;;;;;5.32;3.20;;;3.20;1.00;;;;;;4939469;28;20236;-78
2021/03/07 04:19:17;;;;;;;4.80;3.10;;;3.10;1.00;;;;;;4930922;28;20292;-78
2021/03/07 04:21:44;;;;;;;6.43;3.00;;;3.10;1.00;;;;;;4939548;28;20234;-78
2021/03/07 04:24:12;;;;;;;6.43;3.45;;;3.10;1.00;;;;;;4925353;28;20225;-79
2021/03/07 04:26:39;;;;;;;6.03;3.00;;;3.10;1.00;;;;;;4939218;28;20288;-79
2021/03/07 04:29:05;;;;;;;3.53;2.72;;;3.10;1.00;;;;;;4933198;28;20355;-77
2021/03/07 04:31:32;;;;;;;3.72;2.80;;;3.00;1.00;;;;;;4931977;28;20230;-78
2021/03/07 04:33:59;;;;;;;4.85;3.33;;;3.00;1.00;;;;;;4931441;28;22070;-78
2021/03/07 04:36:25;;;;;;;6.80;3.28;;;3.00;1.00;;;;;;4942675;28;20345;-78
2021/03/07 04:38:52;;;;;;;5.72;3.08;;;3.00;1.00;;;;;;4939239;28;20222;-78
2021/03/07 04:41:19;;;;;;;5.28;3.10;;;3.00;1.00;;;;;;4935551;28;20237;-78
2021/03/07 04:43:49;;;;;;;7.18;3.22;;;3.00;1.00;;;;;;4933757;28;20237;-78
2021/03/07 04:46:18;;;;;;;7.18;3.10;;;3.00;1.00;;;;;;4928985;28;20232;-78
2021/03/07 04:48:44;;;;;;;4.72;3.03;;;3.00;1.00;;;;;;4938208;28;20288;-78
2021/03/07 04:51:10;;;;;;;5.70;3.13;;;3.00;1.00;;;;;;4933088;28;20230;-78
2021/03/07 04:53:36;;;;;;;3.88;3.47;;;3.00;1.00;;;;;;4948702;28;20224;-78
2021/03/07 04:56:03;;;;;;;7.30;3.60;;;3.00;1.00;;;;;;4933930;28;20253;-78
2021/03/07 04:58:30;;;;;;;7.93;3.45;;;3.00;1.00;;;;;;4944590;28;20707;-78
2021/03/07 05:00:56;;;;;;;4.68;3.47;;;3.00;1.00;;;;;;4928672;28;21179;-78
2021/03/07 05:03:22;;;;;;;6.68;4.15;;;3.00;1.00;;;;;;4940531;28;21177;-79
2021/03/07 05:05:48;;;;;;;5.93;3.60;;;3.00;1.00;;;;;;4926204;28;20237;-79
2021/03/07 05:08:15;;;;;;;4.65;3.38;;;2.90;1.00;;;;;;4940885;28;20323;-78
2021/03/07 05:10:41;;;;;;;6.10;3.30;;;2.90;1.00;;;;;;4932723;28;20223;-78
2021/03/07 05:13:07;;;;;;;4.10;3.17;;;2.90;1.00;;;;;;4927337;28;20229;-78
2021/03/07 05:15:34;;;;;;;5.20;3.83;;;2.90;1.00;;;;;;4931482;28;20229;-78
2021/03/07 05:18:00;;;;;;;4.32;3.30;;;2.90;1.00;;;;;;4942902;28;20229;-79
2021/03/07 05:20:27;;;;;;;4.45;3.45;;;2.90;1.00;;;;;;4940531;28;20327;-80
2021/03/07 05:22:53;;;;;;;4.72;3.13;;;2.90;1.00;;;;;;4937089;28;20229;-79
2021/03/07 05:25:19;;;;;;;4.00;2.90;;;2.90;1.00;;;;;;4940294;28;20250;-79
2021/03/07 05:27:45;;;;;;;5.53;3.42;;;2.90;1.00;;;;;;4937396;28;20292;-79
2021/03/07 05:30:12;;;;;;;5.95;2.97;;;2.90;1.00;;;;;;4947429;28;21340;-78
2021/03/07 05:32:39;;;;;;;7.03;4.60;;;2.90;1.00;;;;;;4915964;28;20324;-79
2021/03/07 05:35:06;;;;;;;4.45;4.05;;;2.90;1.00;;;;;;4931705;28;20225;-79
2021/03/07 05:37:32;;;;;;;5.07;3.45;;;2.90;1.00;;;;;;4922725;28;20272;-79
2021/03/07 05:39:59;;;;;;;4.47;3.08;;;3.00;1.00;;;;;;4929202;28;20387;-79
2021/03/07 05:42:25;;;;;;;4.35;3.10;;;3.00;1.00;;;;;;4919961;28;20749;-79
2021/03/07 05:44:52;;;;;;;4.82;2.92;;;3.00;1.00;;;;;;4946164;28;20268;-80
2021/03/07 05:47:18;;;;;;;4.93;3.55;;;3.00;1.00;;;;;;4913833;28;21119;-79
2021/03/07 05:49:45;;;;;;;4.35;2.88;;;3.00;1.00;;;;;;4945987;28;21685;-79
2021/03/07 05:52:12;;;;;;;11.27;3.47;;;3.00;1.00;;;;;;4932773;28;20221;-79
2021/03/07 05:54:39;;;;;;;4.28;3.33;;;3.00;1.00;;;;;;4947167;28;20213;-79
2021/03/07 05:57:07;;;;;;;4.45;2.42;;;3.00;1.00;;;;;;4920974;28;20240;-79
2021/03/07 05:59:36;;;;;;;6.13;3.15;;;3.00;1.00;;;;;;4950625;28;20237;-78
2021/03/07 06:02:03;;;;;;;2.67;2.47;;;3.00;1.00;;;;;;4944207;28;20256;-79
2021/03/07 06:04:29;;;;;;;5.57;3.20;;;3.10;1.00;;;;;;4923189;28;20229;-79
2021/03/07 06:06:56;;;;;;;4.93;3.05;;;3.10;1.00;;;;;;4924451;28;20747;-78
2021/03/07 06:09:26;;;;;;;4.30;2.72;;;3.00;1.00;;;;;;4933512;28;22814;-79
2021/03/07 06:11:53;;;;;;;4.05;2.67;;;3.00;1.00;;;;;;4946209;28;20232;-80
2021/03/07 06:14:27;;;;;;;6.10;2.58;;;3.00;1.00;;;;;;4932012;28;21060;-78
2021/03/07 06:16:58;;;;;;;3.42;3.00;;;3.00;1.00;;;;;;4939733;28;20251;-79
2021/03/07 06:19:25;;;;;;;5.28;2.75;;;3.10;1.00;;;;;;4919938;28;20656;-78
2021/03/07 06:21:51;;;;;;;5.28;3.10;;;3.10;1.00;;;;;;4940872;28;20245;-78
2021/03/07 06:24:34;;;;;;;3.40;2.60;;;3.10;1.00;;;;;;4926376;28;20320;-78
2021/03/07 06:27:06;;;;;;;9.23;3.40;;;3.20;1.00;;;;;;4942151;28;20233;-78
2021/03/07 06:29:32;;;;;;;5.45;3.33;;;3.20;1.00;;;;;;4927529;28;20235;-79
2021/03/07 06:31:58;;;;;;;5.53;2.85;;;3.20;1.00;;;;;;4946622;28;20220;-78
2021/03/07 06:34:25;;;;;;;5.65;3.42;;;3.20;1.00;;;;;;4934118;28;20226;-78
2021/03/07 06:37:03;;;;;;;4.07;2.95;;;3.20;1.00;;;;;;4941392;28;20225;-78
2021/03/07 06:39:29;;;;;;;4.10;2.80;;;3.20;1.00;;;;;;4931289;28;20704;-78
2021/03/07 06:42:04;;;;;;;3.38;2.78;;;3.20;1.00;;;;;;4935992;28;20713;-78
2021/03/07 06:44:30;;;;;;;3.88;3.20;;;3.10;1.00;;;;;;4928666;28;20658;-78
2021/03/07 06:47:07;;;;;;;3.13;2.83;;;3.10;1.00;;;;;;4938801;28;20416;-78
2021/03/07 06:49:33;;;;;;;3.85;2.70;;;3.20;1.00;;;;;;4925249;28;20238;-78
2021/03/07 06:52:15;;;;;;;6.00;2.47;;;3.20;1.00;;;;;;4939111;28;20268;-79
2021/03/07 06:54:41;;;;;;;2.38;2.15;;;3.20;1.00;;;;;;4930109;28;20236;-78
2021/03/07 06:57:09;;;;;;;6.22;3.30;;;3.20;1.00;;;;;;4940258;28;20229;-78
2021/03/07 06:59:35;;;;;;;3.60;2.25;;;3.30;1.00;;;;;;4928943;28;22667;-79
2021/03/07 07:02:08;;;;;;;8.50;4.00;;;3.30;1.00;;;;;;4934512;28;20237;-78
2021/03/07 07:04:43;;;;;;;3.88;2.97;;;3.30;1.00;;;;;;4932211;28;20716;-79
2021/03/07 07:07:11;;;;;;;10.32;4.97;;;3.30;1.00;;;;;;4930806;28;20682;-79
2021/03/07 07:09:38;;;;;;;4.07;2.33;;;3.30;1.00;;;;;;4946499;28;20232;-79
2021/03/07 07:12:06;;;;;;;7.75;3.05;;;3.30;1.00;;;;;;4936984;28;20225;-79
2021/03/07 07:14:40;;;;;;;3.38;2.72;;;3.30;1.00;;;;;;4943563;28;20342;-78
2021/03/07 07:17:08;;;;;;;5.57;2.72;;;3.30;1.00;;;;;;4933012;28;21149;-79
2021/03/07 07:19:35;;;;;;;2.90;2.70;;;3.30;1.00;;;;;;4943194;28;20249;-79
2021/03/07 07:22:01;;;;;;;4.82;2.60;;;3.40;1.00;;;;;;4920508;28;20399;-79
2021/03/07 07:24:27;;;;;;;8.15;3.00;;;3.40;1.00;;;;;;4941715;28;20292;-79
2021/03/07 07:26:56;;;;;;;3.63;2.55;;;3.40;1.00;;;;;;4938898;28;20265;-78
2021/03/07 07:29:23;;;;;;;3.78;2.85;;;3.50;1.00;;;;;;4942864;28;20713;-79
2021/03/07 07:31:55;;;;;;;7.20;3.35;;;3.50;1.00;;;;;;4929845;28;20221;-79
2021/03/07 07:34:26;;;;;;;6.65;3.25;;;3.50;1.00;;;;;;4945874;28;21196;-78
2021/03/07 07:36:57;;;;;;;4.55;2.97;;;3.50;1.00;;;;;;4931108;28;20308;-78
2021/03/07 07:39:27;;;;;;;6.00;3.15;;;3.60;1.00;;;;;;4941992;28;20877;-78
2021/03/07 07:41:53;;;;;;;4.40;3.50;;;3.60;1.00;;;;;;4935050;28;20311;-79
2021/03/07 07:44:29;;;;;;;3.22;2.90;;;3.70;1.00;;;;;;4938110;28;20230;-78
2021/03/07 07:46:59;;;;;;;5.70;2.85;;;3.70;1.00;;;;;;4929978;28;20584;-79
2021/03/07 07:49:45;;;;;;;6.32;3.08;;;3.80;1.00;;;;;;4941823;28;20235;-78
2021/03/07 07:52:34;;;;;;;5.00;3.40;;;3.70;1.00;;;;;;4929599;28;21017;-78
2021/03/07 07:55:05;;;;;;;3.58;2.83;;;3.80;1.00;;;;;;4937786;28;20225;-78
2021/03/07 07:57:50;;;;;;;5.22;2.55;;;3.70;1.00;;;;;;4915563;28;21196;-78
2021/03/07 08:00:48;;;;;;;2.45;2.20;;;3.80;1.00;;;;;;4933923;28;20244;-78
2021/03/07 08:03:34;;;;;;;4.28;2.60;;;3.90;1.00;;;;;;4926754;28;20282;-81
2021/03/07 08:06:03;;;;;;;5.43;2.70;;;3.90;1.00;;;;;;4943632;28;20240;-80
2021/03/07 08:08:31;;;;;;;3.20;2.58;;;3.90;1.00;;;;;;4943494;28;20286;-79
2021/03/07 08:10:58;;;;;;;3.15;2.85;;;3.90;1.00;;;;;;4943180;28;20324;-78
2021/03/07 08:13:43;;;;;;;3.10;2.80;;;4.00;1.00;;;;;;4938704;28;20269;-80
2021/03/07 08:16:09;;;;;;;5.45;3.15;;;4.00;1.00;;;;;;4944101;28;20377;-78
2021/03/07 08:18:47;;;;;;;4.15;2.25;;;4.00;1.00;;;;;;4944892;28;20248;-77
2021/03/07 08:21:14;;;;;;;5.20;3.10;;;4.10;1.00;;;;;;4946531;28;20307;-79
2021/03/07 08:23:56;;;;;;;4.90;2.58;;;4.10;1.00;;;;;;4919020;28;20729;-79
2021/03/07 08:26:24;;;;;;;4.43;3.35;;;4.20;1.00;;;;;;4952630;28;20240;-83
2021/03/07 08:28:51;;;;;;;4.05;2.72;;;4.30;1.00;;;;;;4935245;28;20313;-78
2021/03/07 08:31:36;;;;;;;4.25;2.50;;;4.40;1.00;;;;;;4926040;28;20240;-78
2021/03/07 08:34:21;;;;;;;3.38;3.08;;;4.30;1.00;;;;;;4937072;28;20239;-77
2021/03/07 08:37:01;;;;;;;5.38;3.50;;;4.30;1.00;;;;;;4946464;28;20253;-77
2021/03/07 08:39:28;;;;;;;5.20;3.72;;;4.30;1.00;;;;;;4942305;28;20205;-82
2021/03/07 08:41:57;;;;;;;4.00;3.50;;;4.30;1.00;;;;;;4944093;28;20533;-77
2021/03/07 08:44:23;;;;;;;4.88;2.70;;;4.30;1.00;;;;;;4947777;28;20233;-80
2021/03/07 08:46:49;;;;;;;7.10;2.85;;;4.20;1.00;;;;;;4950531;28;20245;-80
2021/03/07 08:49:17;;;;;;;5.22;3.42;;;4.20;1.00;;;;;;4934198;28;20236;-79
2021/03/07 08:51:46;;;;;;;4.95;2.83;;;4.10;1.00;;;;;;4941948;28;20316;-79
2021/03/07 08:54:14;;;;;;;4.97;3.20;;;4.20;1.00;;;;;;4935841;28;22444;-78
2021/03/07 08:56:41;;;;;;;5.47;2.75;;;4.30;1.00;;;;;;4940829;28;20226;-79
2021/03/07 08:59:09;;;;;;;3.28;2.55;;;4.30;1.00;;;;;;4932341;28;20812;-78
2021/03/07 09:01:36;;;;;;;4.38;2.80;;;4.30;1.00;;;;;;4945451;28;20241;-78
2021/03/07 09:04:04;;;;;;;4.40;2.60;;;4.30;1.00;;;;;;4942317;28;20754;-79
2021/03/07 09:06:32;;;;;;;4.55;3.42;;;4.40;1.00;;;;;;4943686;28;20256;-81
2021/03/07 09:09:08;;;;;;;4.90;3.03;;;4.50;1.00;;;;;;4947860;28;20244;-78
2021/03/07 09:11:36;;;;;;;8.48;4.05;;;4.50;1.00;;;;;;4940349;28;20236;-78
2021/03/07 09:14:02;;;;;;;4.80;2.58;;;4.40;1.00;;;;;;4944826;28;20224;-78
2021/03/07 09:16:40;;;;;;;4.88;2.92;;;4.40;1.00;;;;;;4936068;28;20292;-79
2021/03/07 09:19:31;;;;;;;3.13;2.83;;;4.40;1.00;;;;;;4944969;28;20236;-79
2021/03/07 09:22:17;;;;;;;10.93;4.55;;;4.40;1.00;;;;;;4917544;28;20332;-79
2021/03/07 09:24:56;;;;;;;6.10;3.10;;;4.40;1.00;;;;;;4944224;28;21215;-81
2021/03/07 09:27:24;;;;;;;4.25;3.00;;;4.50;1.00;;;;;;4940123;28;20245;-78
2021/03/07 09:29:56;;;;;;;8.85;3.78;;;4.40;1.00;;;;;;4940863;28;20437;-77
2021/03/07 09:32:27;;;;;;;4.57;3.50;;;4.40;1.00;;;;;;4929231;28;20229;-76
2021/03/07 09:34:53;;;;;;;3.63;3.28;;;4.50;1.00;;;;;;4939924;28;20238;-78
2021/03/07 09:37:19;;;;;;;4.18;3.78;;;4.40;1.00;;;;;;4931323;28;20221;-80
2021/03/07 09:39:46;;;;;;;5.43;3.85;;;4.40;1.00;;;;;;4949259;28;20275;-80
2021/03/07 09:42:14;;;;;;;5.18;3.92;;;4.40;1.00;;;;;;4943661;28;20290;-78
2021/03/07 09:44:41;;;;;;;8.10;4.35;;;4.40;1.00;;;;;;4930689;28;20964;-79
2021/03/07 09:47:08;;;;;;;5.40;3.70;;;4.40;1.00;;;;;;4913476;28;20248;-76
2021/03/07 09:49:34;;;;;;;4.43;4.03;;;4.40;1.00;;;;;;4940431;28;20225;-77
2021/03/07 09:52:01;;;;;;;5.88;3.65;;;4.40;1.00;;;;;;4928355;28;20228;-78
2021/03/07 09:54:27;;;;;;;4.97;4.30;;;4.40;1.00;;;;;;4942444;28;20630;-77
2021/03/07 09:56:55;;;;;;;5.25;3.70;;;4.40;1.00;;;;;;4929301;28;20221;-78
2021/03/07 09:59:25;;;;;;;4.25;3.85;;;4.40;1.00;;;;;;4936281;28;20324;-79
2021/03/07 10:01:53;;;;;;;4.68;4.20;;;4.40;1.00;;;;;;4929648;28;20234;-77
2021/03/07 10:04:31;;;;;;;4.82;4.00;;;4.40;1.00;;;;;;4935326;28;20249;-77
2021/03/07 10:06:58;;;;;;;8.18;3.88;;;4.50;1.00;;;;;;4936238;28;20335;-80
2021/03/07 10:09:25;;;;;;;9.38;4.00;;;4.50;1.00;;;;;;4945032;28;20266;-79
2021/03/07 10:11:59;;;;;;;6.15;4.85;;;4.40;1.00;;;;;;4927677;28;20319;-78
2021/03/07 10:14:29;;;;;;;6.00;5.50;;;4.40;1.00;;;;;;4949203;23;20232;-78
2021/03/07 10:16:57;;;;;;;5.45;4.85;;;4.40;1.00;;;;;;4945975;28;20245;-76
2021/03/07 10:19:32;;;;;;;4.68;4.13;;;4.50;1.00;;;;;;4937197;28;20251;-76
2021/03/07 10:22:02;;;;;;;5.65;4.45;;;4.50;1.00;;;;;;4938523;28;20309;-77
2021/03/07 10:24:32;;;;;;;4.68;4.18;;;4.50;1.00;;;;;;4914263;28;20315;-77
2021/03/07 10:27:02;;;;;;;5.78;4.65;;;4.50;1.00;;;;;;4920640;29;20233;-77
2021/03/07 10:29:31;;;;;;;4.53;4.13;;;4.50;1.00;;;;;;4919595;28;20294;-76
2021/03/07 10:32:16;;;;;;;4.53;4.13;;;4.50;1.00;;;;;;4926887;28;20217;-76
2021/03/07 10:34:44;;;;;;;9.85;4.63;;;4.50;1.00;;;;;;4922829;28;20742;-77
2021/03/07 10:37:38;;;;;;;7.05;4.88;;;4.40;1.00;;;;;;4926527;28;20226;-75
2021/03/07 10:40:08;;;;;;;6.10;5.03;;;4.30;1.00;;;;;;4920495;28;21102;-77
2021/03/07 10:42:36;;;;;;;5.55;4.95;;;4.50;1.00;;;;;;4930608;28;20265;-77
2021/03/07 10:45:28;;;;;;;6.03;4.65;;;4.50;1.00;;;;;;4918163;28;20226;-77
2021/03/07 10:48:02;;;;;;;8.38;5.68;;;4.50;1.00;;;;;;4917970;28;20233;-77
2021/03/07 10:50:29;;;;;;;5.25;4.30;;;4.60;1.00;;;;;;4924378;28;20248;-77
2021/03/07 10:52:56;;;;;;;5.25;4.38;;;4.60;1.00;;;;;;4925387;28;21026;-76
2021/03/07 10:55:23;;;;;;;7.68;4.80;;;4.60;1.00;;;;;;4922727;28;20237;-76
2021/03/07 10:57:49;;;;;;;6.22;4.43;;;4.60;1.00;;;;;;4932042;28;20225;-78
2021/03/07 11:00:17;;;;;;;6.07;5.45;;;4.60;1.00;;;;;;4920441;28;20248;-77
2021/03/07 11:02:45;;;;;;;8.43;5.65;;;4.70;1.00;;;;;;4932573;28;20761;-76
2021/03/07 11:05:12;;;;;;;7.90;5.85;;;4.70;1.00;;;;;;4919866;28;20277;-76
2021/03/07 11:07:38;;;;;;;6.18;5.30;;;4.70;1.00;;;;;;4934242;28;20763;-75
2021/03/07 11:10:06;;;;;;;5.70;4.57;;;4.80;1.00;;;;;;4919137;28;20277;-77
2021/03/07 11:12:33;;;;;;;6.03;5.43;;;4.80;1.00;;;;;;4935702;28;20225;-74
2021/03/07 11:14:59;;;;;;;6.32;5.72;;;4.80;1.00;;;;;;4924355;28;21073;-75
2021/03/07 11:17:25;;;;;;;8.18;5.95;;;4.70;1.00;;;;;;4930382;28;20229;-77
2021/03/07 11:19:53;;;;;;;9.88;5.50;;;4.70;1.00;;;;;;4922641;28;20257;-76
2021/03/07 11:22:19;;;;;;;9.52;5.03;;;4.80;1.00;;;;;;4929652;28;20248;-76
2021/03/07 11:24:45;;;;;;;6.35;5.22;;;4.80;1.00;;;;;;4928545;28;20234;-75
2021/03/07 11:27:11;;;;;;;6.90;4.72;;;4.80;1.00;;;;;;4916266;28;20249;-74
2021/03/07 11:29:37;;;;;;;8.15;5.00;;;4.80;1.00;;;;;;4928981;28;20253;-75
2021/03/07 11:32:04;;;;;;;5.80;5.05;;;4.80;1.00;;;;;;4917194;28;20226;-77
2021/03/07 11:34:31;;;;;;;5.68;5.07;;;4.80;1.00;;;;;;4926068;28;20226;-77
2021/03/07 11:36:58;;;;;;;6.47;4.95;;;4.90;1.00;;;;;;4916048;28;20221;-76
2021/03/07 11:39:24;;;;;;;5.60;4.82;;;4.90;1.00;;;;;;4930399;28;20235;-77
2021/03/07 11:41:50;;;;;;;7.00;4.68;;;4.90;1.00;;;;;;4918932;28;20233;-79
2021/03/07 11:44:16;;;;;;;6.22;5.10;;;5.00;1.00;;;;;;4927489;28;20324;-78
2021/03/07 11:46:43;;;;;;;10.10;5.40;;;4.90;1.00;;;;;;4916787;28;20321;-77
2021/03/07 11:49:09;;;;;;;8.65;5.10;;;4.90;1.00;;;;;;4928973;28;20557;-75
2021/03/07 11:51:35;;;;;;;7.35;5.25;;;4.80;1.00;;;;;;4918977;28;21421;-78
2021/03/07 11:54:02;;;;;;;7.53;5.57;;;4.80;1.00;;;;;;4926387;28;20337;-76
2021/03/07 11:56:29;;;;;;;5.55;4.93;;;4.80;1.00;;;;;;4918805;28;20346;-77
2021/03/07 11:58:55;;;;;;;6.82;4.85;;;4.80;1.00;;;;;;4929105;28;21557;-77
2021/03/07 12:01:21;;;;;;;6.43;4.70;;;4.80;1.00;;;;;;4930347;28;20717;-77
2021/03/07 12:03:47;;;;;;;6.72;4.95;;;4.70;1.00;;;;;;4910049;29;20233;-78
2021/03/07 12:06:14;;;;;;;6.22;4.80;;;4.80;1.00;;;;;;4927121;28;20265;-78
2021/03/07 12:08:40;;;;;;;6.22;5.63;;;4.70;1.00;;;;;;4933080;28;20235;-76
2021/03/07 12:11:07;;;;;;;11.88;5.65;;;4.80;1.00;;;;;;4930720;28;21200;-76
2021/03/07 12:13:33;;;;;;;8.95;5.40;;;4.90;1.00;;;;;;4933639;28;20283;-75
2021/03/07 12:16:00;;;;;;;7.53;6.03;;;4.90;1.00;;;;;;4940281;28;20233;-77
2021/03/07 12:18:27;;;;;;;7.38;5.10;;;4.80;1.00;;;;;;4932650;28;21073;-77
2021/03/07 12:20:53;;;;;;;8.15;5.75;;;4.80;1.00;;;;;;4926623;28;20309;-77
2021/03/07 12:23:19;;;;;;;6.60;5.75;;;4.80;1.00;;;;;;4928641;28;20251;-76
2021/03/07 12:25:45;;;;;;;9.95;6.45;;;4.70;1.00;;;;;;4931559;28;20762;-76
2021/03/07 12:28:13;;;;;;;6.20;5.60;;;4.70;1.00;;;;;;4928451;28;20310;-76
2021/03/07 12:30:39;;;;;;;5.53;5.03;;;4.60;1.00;;;;;;4932150;28;20228;-75
2021/03/07 12:33:05;;;;;;;6.78;5.93;;;4.60;1.00;;;;;;4930166;28;20233;-75
2021/03/07 12:35:32;;;;;;;7.22;5.70;;;4.60;1.00;;;;;;4930827;28;21207;-77
2021/03/07 12:37:58;;;;;;;8.18;5.43;;;4.70;1.00;;;;;;4932802;28;21442;-78
2021/03/07 12:40:24;;;;;;;8.05;5.78;;;4.70;1.00;;;;;;4932500;28;20230;-78
2021/03/07 12:42:50;;;;;;;8.00;6.05;;;4.70;1.00;;;;;;4931225;28;20238;-74
2021/03/07 12:45:18;;;;;;;8.25;5.72;;;4.70;1.00;;;;;;4932341;28;20261;-75
2021/03/07 12:47:44;;;;;;;7.60;6.50;;;4.70;1.00;;;;;;4935390;28;20325;-75
2021/03/07 12:50:11;;;;;;;7.18;6.32;;;4.60;1.00;;;;;;4932015;28;20236;-76
2021/03/07 12:52:37;;;;;;;6.10;5.50;;;4.70;1.00;;;;;;4927705;28;20293;-74
2021/03/07 12:55:05;;;;;;;6.15;5.10;;;4.60;1.00;;;;;;4939542;28;20232;-75
2021/03/07 12:57:31;;;;;;;8.63;6.10;;;4.60;1.00;;;;;;4934923;28;20230;-76
2021/03/07 12:59:58;;;;;;;7.45;4.85;;;4.50;1.00;;;;;;4932719;28;20244;-76
2021/03/07 13:02:25;;;;;;;6.40;5.80;;;4.50;1.00;;;;;;4927719;28;21097;-75
2021/03/07 13:04:51;;;;;;;7.85;5.70;;;4.50;1.00;;;;;;4929591;28;20249;-76
2021/03/07 13:07:17;;;;;;;5.82;4.57;;;4.50;1.00;;;;;;4932557;28;21484;-76
2021/03/07 13:09:44;;;;;;;6.70;5.63;;;4.60;1.00;;;;;;4929539;28;20274;-77
2021/03/07 13:12:11;;;;;;;10.32;5.82;;;4.70;1.00;;;;;;4931757;28;20766;-76
2021/03/07 13:14:37;;;;;;;5.82;5.30;;;4.80;1.00;;;;;;4915726;28;20346;-76